sensor_id;sensor_type;location;lat;lon;timestamp;pressure;altitude;pressure_sealevel;temperature;humidity
73624;BME280;61921;53.226;-1.296;2023-06-24T00:01:44;101030.38;;;20.23;78.29
73624;BME280;61921;53.226;-1.296;2023-06-24T00:04:09;101028.29;;;20.29;78.05
73624;BME280;61921;53.226;-1.296;2023-06-24T00:06:34;101027.86;;;20.16;78.50
73624;BME280;61921;53.226;-1.296;2023-06-24T00:08:59;101028.68;;;20.04;79.24
73624;BME280;61921;53.226;-1.296;2023-06-24T00:11:24;101040.19;;;19.97;79.60
73624;BME280;61921;53.226;-1.296;2023-06-24T00:13:50;101034.65;;;19.77;80.91
73624;BME280;61921;53.226;-1.296;2023-06-24T00:16:15;101032.99;;;19.73;81.56
73624;BME280;61921;53.226;-1.296;2023-06-24T00:18:40;101031.60;;;19.77;81.66
73624;BME280;61921;53.226;-1.296;2023-06-24T00:21:05;101029.72;;;19.79;81.82
73624;BME280;61921;53.226;-1.296;2023-06-24T00:23:31;101030.12;;;19.88;81.68
73624;BME280;61921;53.226;-1.296;2023-06-24T00:25:56;101027.21;;;19.82;82.19
73624;BME280;61921;53.226;-1.296;2023-06-24T00:28:21;101025.39;;;19.89;81.77
73624;BME280;61921;53.226;-1.296;2023-06-24T00:30:46;101024.39;;;19.92;81.73
73624;BME280;61921;53.226;-1.296;2023-06-24T00:33:11;101028.06;;;19.91;82.10
73624;BME280;61921;53.226;-1.296;2023-06-24T00:35:36;101028.05;;;19.85;82.33
73624;BME280;61921;53.226;-1.296;2023-06-24T00:38:01;101032.13;;;19.81;82.62
73624;BME280;61921;53.226;-1.296;2023-06-24T00:40:26;101034.87;;;19.84;82.60
73624;BME280;61921;53.226;-1.296;2023-06-24T00:42:52;101032.15;;;19.73;83.13
73624;BME280;61921;53.226;-1.296;2023-06-24T00:45:17;101032.00;;;19.74;83.31
73624;BME280;61921;53.226;-1.296;2023-06-24T00:47:42;101024.84;;;19.83;82.79
73624;BME280;61921;53.226;-1.296;2023-06-24T00:50:07;101017.20;;;19.80;82.76
73624;BME280;61921;53.226;-1.296;2023-06-24T00:52:32;101014.08;;;19.69;83.47
73624;BME280;61921;53.226;-1.296;2023-06-24T00:54:57;101014.51;;;19.69;83.61
73624;BME280;61921;53.226;-1.296;2023-06-24T00:57:22;101008.65;;;19.60;84.40
73624;BME280;61921;53.226;-1.296;2023-06-24T00:59:47;101007.15;;;19.54;84.62
73624;BME280;61921;53.226;-1.296;2023-06-24T01:02:12;101010.03;;;19.54;84.65
73624;BME280;61921;53.226;-1.296;2023-06-24T01:04:38;101016.09;;;19.52;84.76
73624;BME280;61921;53.226;-1.296;2023-06-24T01:07:04;101015.04;;;19.67;84.08
73624;BME280;61921;53.226;-1.296;2023-06-24T01:09:28;101011.82;;;19.59;84.52
73624;BME280;61921;53.226;-1.296;2023-06-24T01:11:53;101016.57;;;19.59;84.35
73624;BME280;61921;53.226;-1.296;2023-06-24T01:14:18;101015.62;;;19.48;84.90
73624;BME280;61921;53.226;-1.296;2023-06-24T01:16:51;101020.21;;;19.51;84.99
73624;BME280;61921;53.226;-1.296;2023-06-24T01:19:22;101018.52;;;19.54;84.70
73624;BME280;61921;53.226;-1.296;2023-06-24T01:21:41;101023.50;;;19.54;85.05
73624;BME280;61921;53.226;-1.296;2023-06-24T01:24:13;101021.44;;;19.48;85.25
73624;BME280;61921;53.226;-1.296;2023-06-24T01:29:05;101020.83;;;19.60;84.73
73624;BME280;61921;53.226;-1.296;2023-06-24T01:31:29;101023.06;;;19.70;84.47
73624;BME280;61921;53.226;-1.296;2023-06-24T01:33:45;101022.09;;;19.77;83.87
73624;BME280;61921;53.226;-1.296;2023-06-24T01:36:08;101023.60;;;19.91;83.24
73624;BME280;61921;53.226;-1.296;2023-06-24T01:38:34;101021.11;;;19.92;83.06
73624;BME280;61921;53.226;-1.296;2023-06-24T01:40:55;101011.32;;;19.89;83.00
73624;BME280;61921;53.226;-1.296;2023-06-24T01:43:22;101008.05;;;19.92;82.87
73624;BME280;61921;53.226;-1.296;2023-06-24T01:45:48;101010.01;;;20.02;82.65
73624;BME280;61921;53.226;-1.296;2023-06-24T01:48:14;101006.01;;;19.93;82.87
73624;BME280;61921;53.226;-1.296;2023-06-24T01:50:36;101009.90;;;19.76;83.72
73624;BME280;61921;53.226;-1.296;2023-06-24T01:53:05;101013.26;;;19.90;83.26
73624;BME280;61921;53.226;-1.296;2023-06-24T01:55:28;101019.53;;;19.84;83.60
73624;BME280;61921;53.226;-1.296;2023-06-24T01:57:52;101016.27;;;19.92;83.13
73624;BME280;61921;53.226;-1.296;2023-06-24T02:00:17;101014.28;;;19.91;83.24
73624;BME280;61921;53.226;-1.296;2023-06-24T02:02:42;101015.80;;;19.81;83.61
73624;BME280;61921;53.226;-1.296;2023-06-24T02:05:08;101022.49;;;19.83;83.57
73624;BME280;61921;53.226;-1.296;2023-06-24T02:07:33;101021.59;;;19.81;83.52
73624;BME280;61921;53.226;-1.296;2023-06-24T02:09:58;101022.95;;;19.81;83.46
73624;BME280;61921;53.226;-1.296;2023-06-24T02:12:23;101020.66;;;19.85;83.42
73624;BME280;61921;53.226;-1.296;2023-06-24T02:14:48;101024.38;;;19.89;83.47
73624;BME280;61921;53.226;-1.296;2023-06-24T02:17:13;101023.50;;;19.80;83.76
73624;BME280;61921;53.226;-1.296;2023-06-24T02:19:38;101029.72;;;19.78;84.23
73624;BME280;61921;53.226;-1.296;2023-06-24T02:22:03;101022.90;;;19.73;84.48
73624;BME280;61921;53.226;-1.296;2023-06-24T02:24:28;101020.71;;;19.57;85.57
73624;BME280;61921;53.226;-1.296;2023-06-24T02:26:53;101022.89;;;19.60;85.80
73624;BME280;61921;53.226;-1.296;2023-06-24T02:29:18;101023.08;;;19.57;85.68
73624;BME280;61921;53.226;-1.296;2023-06-24T02:31:43;101021.68;;;19.50;86.12
73624;BME280;61921;53.226;-1.296;2023-06-24T02:34:08;101027.46;;;19.57;85.97
73624;BME280;61921;53.226;-1.296;2023-06-24T02:36:33;101026.61;;;19.63;85.60
73624;BME280;61921;53.226;-1.296;2023-06-24T02:38:59;101019.30;;;19.57;85.71
73624;BME280;61921;53.226;-1.296;2023-06-24T02:41:24;101015.50;;;19.62;85.59
73624;BME280;61921;53.226;-1.296;2023-06-24T02:43:49;101008.67;;;19.52;85.98
73624;BME280;61921;53.226;-1.296;2023-06-24T02:46:15;101009.77;;;19.48;86.31
73624;BME280;61921;53.226;-1.296;2023-06-24T02:48:40;101012.07;;;19.38;86.80
73624;BME280;61921;53.226;-1.296;2023-06-24T02:51:06;101015.55;;;19.21;87.63
73624;BME280;61921;53.226;-1.296;2023-06-24T02:53:30;101015.42;;;19.14;88.21
73624;BME280;61921;53.226;-1.296;2023-06-24T02:55:55;101012.85;;;19.08;88.39
73624;BME280;61921;53.226;-1.296;2023-06-24T02:58:20;101011.38;;;19.00;89.33
73624;BME280;61921;53.226;-1.296;2023-06-24T03:00:45;101010.05;;;19.08;89.20
73624;BME280;61921;53.226;-1.296;2023-06-24T03:03:10;101002.44;;;19.06;89.26
73624;BME280;61921;53.226;-1.296;2023-06-24T03:05:35;101001.95;;;19.15;88.65
73624;BME280;61921;53.226;-1.296;2023-06-24T03:08:01;100997.81;;;19.07;88.56
73624;BME280;61921;53.226;-1.296;2023-06-24T03:10:26;100990.86;;;19.07;88.39
73624;BME280;61921;53.226;-1.296;2023-06-24T03:12:52;100985.71;;;19.09;88.06
73624;BME280;61921;53.226;-1.296;2023-06-24T03:15:17;100986.91;;;19.10;87.82
73624;BME280;61921;53.226;-1.296;2023-06-24T03:17:42;100986.54;;;19.10;87.61
73624;BME280;61921;53.226;-1.296;2023-06-24T03:20:08;100984.21;;;19.14;87.50
73624;BME280;61921;53.226;-1.296;2023-06-24T03:22:32;100979.42;;;19.18;87.26
73624;BME280;61921;53.226;-1.296;2023-06-24T03:24:57;100975.80;;;19.16;87.06
73624;BME280;61921;53.226;-1.296;2023-06-24T03:27:22;100981.27;;;19.12;86.86
73624;BME280;61921;53.226;-1.296;2023-06-24T03:29:47;100986.82;;;19.04;87.20
73624;BME280;61921;53.226;-1.296;2023-06-24T03:32:13;100983.45;;;19.03;87.32
73624;BME280;61921;53.226;-1.296;2023-06-24T03:34:38;100985.93;;;19.06;87.16
73624;BME280;61921;53.226;-1.296;2023-06-24T03:37:04;100989.30;;;19.08;87.40
73624;BME280;61921;53.226;-1.296;2023-06-24T03:39:28;100988.38;;;19.14;87.07
73624;BME280;61921;53.226;-1.296;2023-06-24T03:41:53;100983.70;;;19.10;87.40
73624;BME280;61921;53.226;-1.296;2023-06-24T03:44:18;100977.67;;;19.03;87.47
73624;BME280;61921;53.226;-1.296;2023-06-24T03:46:44;100978.20;;;19.01;87.98
73624;BME280;61921;53.226;-1.296;2023-06-24T03:49:09;100975.98;;;19.02;88.03
73624;BME280;61921;53.226;-1.296;2023-06-24T03:51:34;100976.11;;;19.08;87.88
73624;BME280;61921;53.226;-1.296;2023-06-24T03:53:59;100970.67;;;19.01;88.27
73624;BME280;61921;53.226;-1.296;2023-06-24T03:56:24;100969.30;;;18.91;89.03
73624;BME280;61921;53.226;-1.296;2023-06-24T03:58:49;100973.32;;;18.91;89.34
73624;BME280;61921;53.226;-1.296;2023-06-24T04:01:15;100975.76;;;18.93;89.49
73624;BME280;61921;53.226;-1.296;2023-06-24T04:03:40;100978.91;;;18.91;89.80
73624;BME280;61921;53.226;-1.296;2023-06-24T04:06:05;100982.55;;;18.81;90.43
73624;BME280;61921;53.226;-1.296;2023-06-24T04:08:30;100980.30;;;18.90;90.09
73624;BME280;61921;53.226;-1.296;2023-06-24T04:10:56;100984.47;;;18.89;90.35
73624;BME280;61921;53.226;-1.296;2023-06-24T04:13:21;100984.35;;;18.86;90.31
73624;BME280;61921;53.226;-1.296;2023-06-24T04:15:46;100980.01;;;18.90;90.46
73624;BME280;61921;53.226;-1.296;2023-06-24T04:18:11;100979.28;;;18.89;90.40
73624;BME280;61921;53.226;-1.296;2023-06-24T04:20:36;100982.32;;;18.98;90.00
73624;BME280;61921;53.226;-1.296;2023-06-24T04:23:01;100981.49;;;18.97;90.03
73624;BME280;61921;53.226;-1.296;2023-06-24T04:25:26;100984.29;;;19.01;90.09
73624;BME280;61921;53.226;-1.296;2023-06-24T04:27:51;100987.26;;;18.98;90.49
73624;BME280;61921;53.226;-1.296;2023-06-24T04:30:17;100985.26;;;19.02;90.40
73624;BME280;61921;53.226;-1.296;2023-06-24T04:32:43;100989.32;;;19.02;90.86
73624;BME280;61921;53.226;-1.296;2023-06-24T04:35:08;100990.41;;;18.98;91.36
73624;BME280;61921;53.226;-1.296;2023-06-24T04:37:32;100990.10;;;18.99;91.49
73624;BME280;61921;53.226;-1.296;2023-06-24T04:39:57;100984.92;;;18.88;92.10
73624;BME280;61921;53.226;-1.296;2023-06-24T04:42:22;100995.57;;;18.94;91.97
73624;BME280;61921;53.226;-1.296;2023-06-24T04:44:48;100998.01;;;19.09;91.32
73624;BME280;61921;53.226;-1.296;2023-06-24T04:47:13;100996.23;;;19.05;91.31
73624;BME280;61921;53.226;-1.296;2023-06-24T04:49:38;100998.34;;;19.02;91.59
73624;BME280;61921;53.226;-1.296;2023-06-24T04:52:06;100998.74;;;19.00;91.86
73624;BME280;61921;53.226;-1.296;2023-06-24T04:54:29;101000.12;;;19.04;91.82
73624;BME280;61921;53.226;-1.296;2023-06-24T04:56:54;100998.11;;;19.10;91.34
73624;BME280;61921;53.226;-1.296;2023-06-24T04:59:19;100999.74;;;19.24;91.16
73624;BME280;61921;53.226;-1.296;2023-06-24T05:01:45;101002.29;;;19.24;91.25
73624;BME280;61921;53.226;-1.296;2023-06-24T05:04:10;101004.06;;;19.33;90.76
73624;BME280;61921;53.226;-1.296;2023-06-24T05:06:35;101005.12;;;19.30;91.22
73624;BME280;61921;53.226;-1.296;2023-06-24T05:09:00;101008.38;;;19.28;91.43
73624;BME280;61921;53.226;-1.296;2023-06-24T05:11:25;101005.88;;;19.34;91.51
73624;BME280;61921;53.226;-1.296;2023-06-24T05:13:50;101004.90;;;19.36;91.37
73624;BME280;61921;53.226;-1.296;2023-06-24T05:16:15;100997.42;;;19.37;90.94
73624;BME280;61921;53.226;-1.296;2023-06-24T05:18:41;101003.21;;;19.40;91.00
73624;BME280;61921;53.226;-1.296;2023-06-24T05:21:06;101007.27;;;19.58;90.57
73624;BME280;61921;53.226;-1.296;2023-06-24T05:23:31;101007.91;;;19.76;89.65
73624;BME280;61921;53.226;-1.296;2023-06-24T05:25:56;101000.72;;;19.95;88.62
73624;BME280;61921;53.226;-1.296;2023-06-24T05:28:21;101004.34;;;20.10;87.71
73624;BME280;61921;53.226;-1.296;2023-06-24T05:30:46;101006.39;;;20.23;86.99
73624;BME280;61921;53.226;-1.296;2023-06-24T05:33:12;101007.42;;;20.36;86.66
73624;BME280;61921;53.226;-1.296;2023-06-24T05:35:37;101007.57;;;20.62;85.81
73624;BME280;61921;53.226;-1.296;2023-06-24T05:38:02;101004.65;;;20.66;84.79
73624;BME280;61921;53.226;-1.296;2023-06-24T05:40:27;101006.76;;;20.94;84.29
73624;BME280;61921;53.226;-1.296;2023-06-24T05:42:52;101008.74;;;21.03;83.55
73624;BME280;61921;53.226;-1.296;2023-06-24T05:45:17;101010.82;;;20.90;83.72
73624;BME280;61921;53.226;-1.296;2023-06-24T05:47:43;101005.07;;;21.09;83.31
73624;BME280;61921;53.226;-1.296;2023-06-24T05:50:09;101007.80;;;20.92;83.65
73624;BME280;61921;53.226;-1.296;2023-06-24T05:52:33;101007.42;;;20.86;84.15
73624;BME280;61921;53.226;-1.296;2023-06-24T05:54:59;101007.83;;;20.78;84.69
73624;BME280;61921;53.226;-1.296;2023-06-24T05:57:24;101009.94;;;20.99;84.13
73624;BME280;61921;53.226;-1.296;2023-06-24T05:59:49;101012.71;;;20.95;84.28
73624;BME280;61921;53.226;-1.296;2023-06-24T06:02:14;101013.05;;;21.18;83.54
73624;BME280;61921;53.226;-1.296;2023-06-24T06:04:39;101008.91;;;21.11;83.76
73624;BME280;61921;53.226;-1.296;2023-06-24T06:07:05;101011.53;;;21.18;83.62
73624;BME280;61921;53.226;-1.296;2023-06-24T06:09:29;101012.82;;;21.36;82.59
73624;BME280;61921;53.226;-1.296;2023-06-24T06:11:55;101015.86;;;21.67;81.43
73624;BME280;61921;53.226;-1.296;2023-06-24T06:14:20;101016.98;;;21.54;81.44
73624;BME280;61921;53.226;-1.296;2023-06-24T06:16:45;101019.56;;;21.51;82.08
73624;BME280;61921;53.226;-1.296;2023-06-24T06:19:11;101016.85;;;21.53;82.21
73624;BME280;61921;53.226;-1.296;2023-06-24T06:21:37;101021.21;;;21.57;82.31
73624;BME280;61921;53.226;-1.296;2023-06-24T06:24:01;101024.48;;;21.71;81.49
73624;BME280;61921;53.226;-1.296;2023-06-24T06:26:26;101027.26;;;21.86;81.26
73624;BME280;61921;53.226;-1.296;2023-06-24T06:28:51;101031.93;;;21.83;81.45
73624;BME280;61921;53.226;-1.296;2023-06-24T06:31:16;101033.79;;;21.77;81.85
73624;BME280;61921;53.226;-1.296;2023-06-24T06:33:43;101033.48;;;21.74;82.13
73624;BME280;61921;53.226;-1.296;2023-06-24T06:36:07;101035.37;;;21.70;82.55
73624;BME280;61921;53.226;-1.296;2023-06-24T06:38:33;101041.48;;;21.61;82.75
73624;BME280;61921;53.226;-1.296;2023-06-24T06:40:57;101044.41;;;21.58;83.43
73624;BME280;61921;53.226;-1.296;2023-06-24T06:43:23;101047.53;;;21.73;83.12
73624;BME280;61921;53.226;-1.296;2023-06-24T06:45:48;101055.41;;;21.69;82.62
73624;BME280;61921;53.226;-1.296;2023-06-24T06:48:13;101054.64;;;21.94;81.96
73624;BME280;61921;53.226;-1.296;2023-06-24T06:50:38;101057.96;;;22.08;81.21
73624;BME280;61921;53.226;-1.296;2023-06-24T06:53:03;101061.89;;;22.25;81.00
73624;BME280;61921;53.226;-1.296;2023-06-24T06:55:29;101065.91;;;22.42;80.70
73624;BME280;61921;53.226;-1.296;2023-06-24T06:57:53;101069.09;;;22.48;80.43
73624;BME280;61921;53.226;-1.296;2023-06-24T07:00:19;101070.47;;;22.57;79.44
73624;BME280;61921;53.226;-1.296;2023-06-24T07:02:44;101073.15;;;22.85;78.54
73624;BME280;61921;53.226;-1.296;2023-06-24T07:05:09;101071.68;;;22.77;78.59
73624;BME280;61921;53.226;-1.296;2023-06-24T07:07:34;101076.23;;;22.87;78.52
73624;BME280;61921;53.226;-1.296;2023-06-24T07:09:59;101077.69;;;22.89;77.87
73624;BME280;61921;53.226;-1.296;2023-06-24T07:12:24;101080.87;;;22.79;78.54
73624;BME280;61921;53.226;-1.296;2023-06-24T07:14:50;101084.68;;;22.85;78.61
73624;BME280;61921;53.226;-1.296;2023-06-24T07:17:14;101085.59;;;23.39;77.14
73624;BME280;61921;53.226;-1.296;2023-06-24T07:19:39;101088.35;;;23.55;75.52
73624;BME280;61921;53.226;-1.296;2023-06-24T07:22:05;101089.91;;;23.58;75.43
73624;BME280;61921;53.226;-1.296;2023-06-24T07:24:29;101091.11;;;23.61;75.09
73624;BME280;61921;53.226;-1.296;2023-06-24T07:26:54;101094.09;;;23.47;75.10
73624;BME280;61921;53.226;-1.296;2023-06-24T07:29:20;101092.39;;;23.38;76.10
73624;BME280;61921;53.226;-1.296;2023-06-24T07:31:44;101089.47;;;23.92;76.47
73624;BME280;61921;53.226;-1.296;2023-06-24T07:34:09;101088.53;;;23.81;76.19
73624;BME280;61921;53.226;-1.296;2023-06-24T07:36:34;101089.08;;;24.65;73.71
73624;BME280;61921;53.226;-1.296;2023-06-24T07:38:59;101085.13;;;24.94;71.83
73624;BME280;61921;53.226;-1.296;2023-06-24T07:41:24;101086.31;;;25.35;69.45
73624;BME280;61921;53.226;-1.296;2023-06-24T07:43:49;101083.47;;;25.92;68.28
73624;BME280;61921;53.226;-1.296;2023-06-24T07:46:15;101085.50;;;26.19;69.68
73624;BME280;61921;53.226;-1.296;2023-06-24T07:48:41;101090.91;;;25.49;73.07
73624;BME280;61921;53.226;-1.296;2023-06-24T07:51:07;101087.37;;;25.26;72.25
73624;BME280;61921;53.226;-1.296;2023-06-24T07:53:33;101094.55;;;25.62;73.28
73624;BME280;61921;53.226;-1.296;2023-06-24T07:55:58;101095.74;;;26.84;68.09
73624;BME280;61921;53.226;-1.296;2023-06-24T07:58:24;101090.65;;;26.57;68.16
73624;BME280;61921;53.226;-1.296;2023-06-24T08:00:50;101090.72;;;25.54;67.66
73624;BME280;61921;53.226;-1.296;2023-06-24T08:03:16;101092.85;;;26.21;67.46
73624;BME280;61921;53.226;-1.296;2023-06-24T08:05:42;101094.23;;;26.72;64.13
73624;BME280;61921;53.226;-1.296;2023-06-24T08:08:08;101095.13;;;26.73;63.40
73624;BME280;61921;53.226;-1.296;2023-06-24T08:10:34;101100.73;;;26.24;64.02
73624;BME280;61921;53.226;-1.296;2023-06-24T08:13:00;101105.29;;;25.13;68.02
73624;BME280;61921;53.226;-1.296;2023-06-24T08:15:25;101106.54;;;24.87;68.44
73624;BME280;61921;53.226;-1.296;2023-06-24T08:17:51;101104.76;;;24.83;69.33
73624;BME280;61921;53.226;-1.296;2023-06-24T08:20:16;101104.92;;;25.37;67.19
73624;BME280;61921;53.226;-1.296;2023-06-24T08:22:42;101105.89;;;25.74;66.79
73624;BME280;61921;53.226;-1.296;2023-06-24T08:25:08;101109.05;;;26.13;64.81
73624;BME280;61921;53.226;-1.296;2023-06-24T08:27:34;101103.59;;;26.45;63.36
73624;BME280;61921;53.226;-1.296;2023-06-24T08:29:59;101107.99;;;26.55;62.38
73624;BME280;61921;53.226;-1.296;2023-06-24T08:32:25;101104.09;;;26.04;64.11
73624;BME280;61921;53.226;-1.296;2023-06-24T08:34:52;101096.06;;;25.87;64.45
73624;BME280;61921;53.226;-1.296;2023-06-24T08:37:17;101101.33;;;25.32;66.55
73624;BME280;61921;53.226;-1.296;2023-06-24T08:39:43;101095.16;;;25.16;68.39
73624;BME280;61921;53.226;-1.296;2023-06-24T08:42:08;101095.59;;;24.85;69.37
73624;BME280;61921;53.226;-1.296;2023-06-24T08:44:33;101089.81;;;24.94;69.20
73624;BME280;61921;53.226;-1.296;2023-06-24T08:46:59;101098.21;;;25.11;68.06
73624;BME280;61921;53.226;-1.296;2023-06-24T08:49:28;101094.06;;;25.00;68.39
73624;BME280;61921;53.226;-1.296;2023-06-24T08:51:57;101088.51;;;24.69;69.22
73624;BME280;61921;53.226;-1.296;2023-06-24T08:54:19;101091.31;;;24.66;69.93
73624;BME280;61921;53.226;-1.296;2023-06-24T08:56:43;101090.90;;;24.59;71.13
73624;BME280;61921;53.226;-1.296;2023-06-24T08:59:08;101087.34;;;25.13;68.89
73624;BME280;61921;53.226;-1.296;2023-06-24T09:01:32;101085.69;;;25.30;68.15
73624;BME280;61921;53.226;-1.296;2023-06-24T09:03:58;101086.46;;;25.73;68.20
73624;BME280;61921;53.226;-1.296;2023-06-24T09:06:24;101084.28;;;26.27;64.99
73624;BME280;61921;53.226;-1.296;2023-06-24T09:08:53;101087.21;;;26.35;64.54
73624;BME280;61921;53.226;-1.296;2023-06-24T09:11:24;101081.53;;;26.64;64.16
73624;BME280;61921;53.226;-1.296;2023-06-24T09:13:42;101079.26;;;26.59;62.10
73624;BME280;61921;53.226;-1.296;2023-06-24T09:16:12;101074.62;;;26.11;65.03
73624;BME280;61921;53.226;-1.296;2023-06-24T09:18:33;101077.19;;;26.28;64.94
73624;BME280;61921;53.226;-1.296;2023-06-24T09:20:59;101074.38;;;26.46;63.43
73624;BME280;61921;53.226;-1.296;2023-06-24T09:23:26;101079.58;;;26.34;63.51
73624;BME280;61921;53.226;-1.296;2023-06-24T09:25:56;101082.20;;;26.72;62.64
73624;BME280;61921;53.226;-1.296;2023-06-24T09:28:16;101077.89;;;26.50;62.65
73624;BME280;61921;53.226;-1.296;2023-06-24T09:30:43;101080.71;;;26.62;61.87
73624;BME280;61921;53.226;-1.296;2023-06-24T09:33:11;101076.36;;;26.72;62.99
73624;BME280;61921;53.226;-1.296;2023-06-24T09:35:35;101071.80;;;26.97;62.07
73624;BME280;61921;53.226;-1.296;2023-06-24T09:37:59;101069.89;;;26.82;62.54
73624;BME280;61921;53.226;-1.296;2023-06-24T09:40:25;101069.33;;;27.31;61.70
73624;BME280;61921;53.226;-1.296;2023-06-24T09:42:52;101070.05;;;27.37;60.40
73624;BME280;61921;53.226;-1.296;2023-06-24T09:45:21;101066.90;;;27.07;61.43
73624;BME280;61921;53.226;-1.296;2023-06-24T09:47:43;101065.27;;;27.28;60.84
73624;BME280;61921;53.226;-1.296;2023-06-24T09:50:09;101067.31;;;26.60;63.05
73624;BME280;61921;53.226;-1.296;2023-06-24T09:52:35;101065.08;;;26.38;62.74
73624;BME280;61921;53.226;-1.296;2023-06-24T09:55:01;101067.92;;;26.53;63.50
73624;BME280;61921;53.226;-1.296;2023-06-24T09:57:28;101064.47;;;26.14;64.82
73624;BME280;61921;53.226;-1.296;2023-06-24T09:59:52;101061.18;;;26.06;65.13
73624;BME280;61921;53.226;-1.296;2023-06-24T10:02:18;101055.63;;;26.10;64.77
73624;BME280;61921;53.226;-1.296;2023-06-24T10:04:44;101051.30;;;26.53;63.88
73624;BME280;61921;53.226;-1.296;2023-06-24T10:07:09;101056.41;;;26.94;61.80
73624;BME280;61921;53.226;-1.296;2023-06-24T10:09:35;101055.02;;;26.88;62.38
73624;BME280;61921;53.226;-1.296;2023-06-24T10:12:01;101049.55;;;26.79;63.46
73624;BME280;61921;53.226;-1.296;2023-06-24T10:14:27;101051.44;;;26.74;61.68
73624;BME280;61921;53.226;-1.296;2023-06-24T10:17:01;101054.46;;;27.24;60.54
73624;BME280;61921;53.226;-1.296;2023-06-24T10:19:19;101046.83;;;27.33;60.63
73624;BME280;61921;53.226;-1.296;2023-06-24T10:21:45;101045.65;;;27.53;60.49
73624;BME280;61921;53.226;-1.296;2023-06-24T10:24:10;101043.53;;;27.82;58.44
73624;BME280;61921;53.226;-1.296;2023-06-24T10:26:36;101044.37;;;27.51;59.61
73624;BME280;61921;53.226;-1.296;2023-06-24T10:29:11;101045.29;;;27.43;60.42
73624;BME280;61921;53.226;-1.296;2023-06-24T10:33:53;101046.47;;;26.58;61.30
73624;BME280;61921;53.226;-1.296;2023-06-24T10:38:55;101050.04;;;26.05;63.79
73624;BME280;61921;53.226;-1.296;2023-06-24T10:41:15;101048.42;;;26.09;63.90
73624;BME280;61921;53.226;-1.296;2023-06-24T10:43:39;101045.75;;;26.07;63.86
73624;BME280;61921;53.226;-1.296;2023-06-24T10:46:07;101042.00;;;26.53;63.23
73624;BME280;61921;53.226;-1.296;2023-06-24T10:48:28;101044.99;;;26.58;63.19
73624;BME280;61921;53.226;-1.296;2023-06-24T10:50:54;101042.76;;;26.97;61.78
73624;BME280;61921;53.226;-1.296;2023-06-24T10:53:19;101041.69;;;27.49;60.32
73624;BME280;61921;53.226;-1.296;2023-06-24T10:55:45;101047.15;;;27.51;58.93
73624;BME280;61921;53.226;-1.296;2023-06-24T10:58:12;101051.16;;;27.24;60.17
73624;BME280;61921;53.226;-1.296;2023-06-24T11:00:37;101052.96;;;26.73;61.56
73624;BME280;61921;53.226;-1.296;2023-06-24T11:03:08;101054.64;;;26.73;61.05
73624;BME280;61921;53.226;-1.296;2023-06-24T11:05:27;101049.68;;;26.55;62.53
73624;BME280;61921;53.226;-1.296;2023-06-24T11:07:53;101052.33;;;26.37;62.63
73624;BME280;61921;53.226;-1.296;2023-06-24T11:10:19;101055.96;;;26.17;63.82
73624;BME280;61921;53.226;-1.296;2023-06-24T11:12:45;101055.08;;;26.39;62.79
73624;BME280;61921;53.226;-1.296;2023-06-24T11:15:12;101052.35;;;26.35;63.72
73624;BME280;61921;53.226;-1.296;2023-06-24T11:17:37;101052.30;;;26.95;62.49
73624;BME280;61921;53.226;-1.296;2023-06-24T11:20:07;101049.76;;;27.09;61.02
73624;BME280;61921;53.226;-1.296;2023-06-24T11:22:28;101049.88;;;27.38;61.21
73624;BME280;61921;53.226;-1.296;2023-06-24T11:24:54;101051.34;;;27.48;59.86
73624;BME280;61921;53.226;-1.296;2023-06-24T11:27:25;101044.01;;;27.64;59.10
73624;BME280;61921;53.226;-1.296;2023-06-24T11:29:45;101040.87;;;27.60;60.25
73624;BME280;61921;53.226;-1.296;2023-06-24T11:32:11;101041.06;;;27.82;59.84
73624;BME280;61921;53.226;-1.296;2023-06-24T11:34:37;101040.49;;;27.33;59.34
73624;BME280;61921;53.226;-1.296;2023-06-24T11:37:10;101042.30;;;27.28;60.46
73624;BME280;61921;53.226;-1.296;2023-06-24T11:39:29;101040.36;;;27.26;59.18
73624;BME280;61921;53.226;-1.296;2023-06-24T11:41:57;101044.66;;;27.41;59.92
73624;BME280;61921;53.226;-1.296;2023-06-24T11:44:21;101039.91;;;27.17;59.37
73624;BME280;61921;53.226;-1.296;2023-06-24T11:46:47;101038.41;;;27.37;58.88
73624;BME280;61921;53.226;-1.296;2023-06-24T11:49:12;101036.57;;;26.91;60.75
73624;BME280;61921;53.226;-1.296;2023-06-24T11:51:46;101027.37;;;27.45;59.52
73624;BME280;61921;53.226;-1.296;2023-06-24T11:54:05;101031.34;;;27.78;57.94
73624;BME280;61921;53.226;-1.296;2023-06-24T11:56:34;101033.67;;;27.85;58.05
73624;BME280;61921;53.226;-1.296;2023-06-24T11:58:55;101032.41;;;27.87;56.50
73624;BME280;61921;53.226;-1.296;2023-06-24T12:01:21;101027.65;;;27.65;57.89
73624;BME280;61921;53.226;-1.296;2023-06-24T12:03:46;101024.57;;;27.14;58.38
73624;BME280;61921;53.226;-1.296;2023-06-24T12:06:12;101016.19;;;28.08;58.48
73624;BME280;61921;53.226;-1.296;2023-06-24T12:08:43;101019.61;;;28.40;56.88
73624;BME280;61921;53.226;-1.296;2023-06-24T12:11:04;101018.38;;;27.90;56.29
73624;BME280;61921;53.226;-1.296;2023-06-24T12:13:29;101010.51;;;27.68;58.33
73624;BME280;61921;53.226;-1.296;2023-06-24T12:15:55;101017.37;;;28.24;58.06
73624;BME280;61921;53.226;-1.296;2023-06-24T12:18:21;101014.13;;;28.88;56.84
73624;BME280;61921;53.226;-1.296;2023-06-24T12:20:47;101015.15;;;28.77;54.53
73624;BME280;61921;53.226;-1.296;2023-06-24T12:23:13;101012.56;;;28.94;54.32
73624;BME280;61921;53.226;-1.296;2023-06-24T12:25:38;101010.30;;;28.85;54.85
73624;BME280;61921;53.226;-1.296;2023-06-24T12:28:04;101005.96;;;28.83;56.18
73624;BME280;61921;53.226;-1.296;2023-06-24T12:30:30;101012.53;;;28.86;54.97
73624;BME280;61921;53.226;-1.296;2023-06-24T12:32:56;101012.90;;;28.83;54.99
73624;BME280;61921;53.226;-1.296;2023-06-24T12:35:22;101015.53;;;28.82;54.81
73624;BME280;61921;53.226;-1.296;2023-06-24T12:37:47;101024.29;;;28.64;56.24